sensor_id;sensor_type;location;lat;lon;timestamp;temperature;humidity
67598;DHT22;62026;39.230;9.122;2022-11-22T00:02:15;17.80;72.40
67598;DHT22;62026;39.230;9.122;2022-11-22T00:04:41;17.80;71.30
67598;DHT22;62026;39.230;9.122;2022-11-22T00:07:07;17.80;71.50
67598;DHT22;62026;39.230;9.122;2022-11-22T00:09:33;17.90;71.80
67598;DHT22;62026;39.230;9.122;2022-11-22T00:11:59;17.80;72.30
67598;DHT22;62026;39.230;9.122;2022-11-22T00:14:25;17.90;69.10
67598;DHT22;62026;39.230;9.122;2022-11-22T00:16:51;18.00;69.70
67598;DHT22;62026;39.230;9.122;2022-11-22T00:19:17;17.90;69.10
67598;DHT22;62026;39.230;9.122;2022-11-22T00:21:43;18.00;68.80
67598;DHT22;62026;39.230;9.122;2022-11-22T00:24:11;18.10;67.80
67598;DHT22;62026;39.230;9.122;2022-11-22T00:26:38;18.10;67.80
67598;DHT22;62026;39.230;9.122;2022-11-22T00:29:04;18.10;68.60
67598;DHT22;62026;39.230;9.122;2022-11-22T00:31:30;18.10;69.20
67598;DHT22;62026;39.230;9.122;2022-11-22T00:33:57;18.10;69.60
67598;DHT22;62026;39.230;9.122;2022-11-22T00:36:23;18.10;69.20
67598;DHT22;62026;39.230;9.122;2022-11-22T00:38:50;18.10;68.90
67598;DHT22;62026;39.230;9.122;2022-11-22T00:41:17;18.10;68.20
67598;DHT22;62026;39.230;9.122;2022-11-22T00:43:43;18.10;68.10
67598;DHT22;62026;39.230;9.122;2022-11-22T00:46:09;18.10;68.10
67598;DHT22;62026;39.230;9.122;2022-11-22T00:48:35;18.20;68.10
67598;DHT22;62026;39.230;9.122;2022-11-22T00:51:01;18.20;69.40
67598;DHT22;62026;39.230;9.122;2022-11-22T00:53:27;18.30;67.40
67598;DHT22;62026;39.230;9.122;2022-11-22T00:55:53;18.30;67.20
67598;DHT22;62026;39.230;9.122;2022-11-22T00:58:19;18.30;67.40
67598;DHT22;62026;39.230;9.122;2022-11-22T01:00:45;18.30;67.70
67598;DHT22;62026;39.230;9.122;2022-11-22T01:03:12;18.20;68.30
67598;DHT22;62026;39.230;9.122;2022-11-22T01:05:38;18.30;68.40
67598;DHT22;62026;39.230;9.122;2022-11-22T01:08:04;18.20;68.50
67598;DHT22;62026;39.230;9.122;2022-11-22T01:10:31;18.20;67.40
67598;DHT22;62026;39.230;9.122;2022-11-22T01:12:59;18.30;66.50
67598;DHT22;62026;39.230;9.122;2022-11-22T01:15:25;18.30;66.70
67598;DHT22;62026;39.230;9.122;2022-11-22T01:17:51;18.20;66.20
67598;DHT22;62026;39.230;9.122;2022-11-22T01:20:17;18.20;66.10
67598;DHT22;62026;39.230;9.122;2022-11-22T01:22:43;18.20;66.20
67598;DHT22;62026;39.230;9.122;2022-11-22T01:25:09;18.30;65.00
67598;DHT22;62026;39.230;9.122;2022-11-22T01:27:35;18.30;64.70
67598;DHT22;62026;39.230;9.122;2022-11-22T01:30:01;18.30;65.00
67598;DHT22;62026;39.230;9.122;2022-11-22T01:32:28;18.30;64.70
67598;DHT22;62026;39.230;9.122;2022-11-22T01:34:54;18.30;64.60
67598;DHT22;62026;39.230;9.122;2022-11-22T01:37:20;18.30;64.70
67598;DHT22;62026;39.230;9.122;2022-11-22T01:39:46;18.30;63.90
67598;DHT22;62026;39.230;9.122;2022-11-22T01:42:12;18.40;63.60
67598;DHT22;62026;39.230;9.122;2022-11-22T01:44:39;18.40;63.40
67598;DHT22;62026;39.230;9.122;2022-11-22T01:47:12;18.40;63.40
67598;DHT22;62026;39.230;9.122;2022-11-22T01:49:59;18.30;63.70
67598;DHT22;62026;39.230;9.122;2022-11-22T01:52:31;18.30;63.30
67598;DHT22;62026;39.230;9.122;2022-11-22T01:55:03;18.30;63.50
67598;DHT22;62026;39.230;9.122;2022-11-22T01:57:35;18.30;63.40
67598;DHT22;62026;39.230;9.122;2022-11-22T02:00:09;18.30;63.90
67598;DHT22;62026;39.230;9.122;2022-11-22T02:02:54;18.30;63.00
67598;DHT22;62026;39.230;9.122;2022-11-22T02:05:24;18.30;62.70
67598;DHT22;62026;39.230;9.122;2022-11-22T02:10:55;18.30;65.20
67598;DHT22;62026;39.230;9.122;2022-11-22T02:13:24;18.20;65.70
67598;DHT22;62026;39.230;9.122;2022-11-22T02:15:51;18.20;65.40
67598;DHT22;62026;39.230;9.122;2022-11-22T02:18:18;18.20;65.20
67598;DHT22;62026;39.230;9.122;2022-11-22T02:20:44;18.20;65.30
67598;DHT22;62026;39.230;9.122;2022-11-22T02:26:17;18.10;65.90
67598;DHT22;62026;39.230;9.122;2022-11-22T02:28:43;18.00;67.30
67598;DHT22;62026;39.230;9.122;2022-11-22T02:31:37;17.70;67.30
67598;DHT22;62026;39.230;9.122;2022-11-22T02:34:09;17.60;66.70
67598;DHT22;62026;39.230;9.122;2022-11-22T02:36:49;17.50;66.50
67598;DHT22;62026;39.230;9.122;2022-11-22T02:39:20;17.60;66.90
67598;DHT22;62026;39.230;9.122;2022-11-22T02:41:51;17.50;66.50
67598;DHT22;62026;39.230;9.122;2022-11-22T02:44:19;17.60;66.60
67598;DHT22;62026;39.230;9.122;2022-11-22T02:46:51;17.70;66.40
67598;DHT22;62026;39.230;9.122;2022-11-22T02:49:20;17.70;66.20
67598;DHT22;62026;39.230;9.122;2022-11-22T02:51:48;17.70;65.90
67598;DHT22;62026;39.230;9.122;2022-11-22T02:54:16;17.70;65.90
67598;DHT22;62026;39.230;9.122;2022-11-22T02:56:42;17.60;65.40
67598;DHT22;62026;39.230;9.122;2022-11-22T02:59:08;17.60;65.40
67598;DHT22;62026;39.230;9.122;2022-11-22T03:01:34;17.60;65.40
67598;DHT22;62026;39.230;9.122;2022-11-22T03:04:00;17.60;65.60
67598;DHT22;62026;39.230;9.122;2022-11-22T03:06:26;17.50;65.90
67598;DHT22;62026;39.230;9.122;2022-11-22T03:08:52;17.50;66.00
67598;DHT22;62026;39.230;9.122;2022-11-22T03:11:18;17.50;66.10
67598;DHT22;62026;39.230;9.122;2022-11-22T03:13:44;17.50;66.20
67598;DHT22;62026;39.230;9.122;2022-11-22T03:16:10;17.40;66.40
67598;DHT22;62026;39.230;9.122;2022-11-22T03:18:36;17.40;66.50
67598;DHT22;62026;39.230;9.122;2022-11-22T03:21:07;17.40;66.60
67598;DHT22;62026;39.230;9.122;2022-11-22T03:23:34;17.30;67.10
67598;DHT22;62026;39.230;9.122;2022-11-22T03:26:09;17.30;67.40
67598;DHT22;62026;39.230;9.122;2022-11-22T03:28:36;17.30;67.50
67598;DHT22;62026;39.230;9.122;2022-11-22T03:31:06;17.30;67.60
67598;DHT22;62026;39.230;9.122;2022-11-22T03:33:34;17.30;67.50
67598;DHT22;62026;39.230;9.122;2022-11-22T03:36:00;17.30;67.60
67598;DHT22;62026;39.230;9.122;2022-11-22T03:38:27;17.30;67.70
67598;DHT22;62026;39.230;9.122;2022-11-22T03:40:53;17.30;67.90
67598;DHT22;62026;39.230;9.122;2022-11-22T03:43:19;17.30;67.90
67598;DHT22;62026;39.230;9.122;2022-11-22T03:45:46;17.30;68.00
67598;DHT22;62026;39.230;9.122;2022-11-22T03:48:13;17.30;67.90
67598;DHT22;62026;39.230;9.122;2022-11-22T03:50:40;17.20;67.40
67598;DHT22;62026;39.230;9.122;2022-11-22T03:53:06;17.20;66.60
67598;DHT22;62026;39.230;9.122;2022-11-22T03:55:32;17.20;66.30
67598;DHT22;62026;39.230;9.122;2022-11-22T03:57:58;17.20;65.80
67598;DHT22;62026;39.230;9.122;2022-11-22T04:00:24;17.10;65.70
67598;DHT22;62026;39.230;9.122;2022-11-22T04:02:50;17.10;65.80
67598;DHT22;62026;39.230;9.122;2022-11-22T04:05:16;17.10;65.70
67598;DHT22;62026;39.230;9.122;2022-11-22T04:07:42;17.10;65.60
67598;DHT22;62026;39.230;9.122;2022-11-22T04:10:08;17.00;65.70
67598;DHT22;62026;39.230;9.122;2022-11-22T04:12:35;17.00;65.50
67598;DHT22;62026;39.230;9.122;2022-11-22T04:15:01;17.00;65.40
67598;DHT22;62026;39.230;9.122;2022-11-22T04:17:38;17.00;65.50
67598;DHT22;62026;39.230;9.122;2022-11-22T04:20:13;17.00;65.60
67598;DHT22;62026;39.230;9.122;2022-11-22T04:23:18;17.00;65.70
67598;DHT22;62026;39.230;9.122;2022-11-22T04:25:50;16.90;65.10
67598;DHT22;62026;39.230;9.122;2022-11-22T04:28:20;16.90;64.30
67598;DHT22;62026;39.230;9.122;2022-11-22T04:30:49;16.90;64.80
67598;DHT22;62026;39.230;9.122;2022-11-22T04:33:35;16.80;64.80
67598;DHT22;62026;39.230;9.122;2022-11-22T04:36:01;16.80;64.40
67598;DHT22;62026;39.230;9.122;2022-11-22T04:38:28;16.80;64.10
67598;DHT22;62026;39.230;9.122;2022-11-22T04:40:54;16.80;64.10
67598;DHT22;62026;39.230;9.122;2022-11-22T04:43:23;16.80;64.20
67598;DHT22;62026;39.230;9.122;2022-11-22T04:46:10;16.80;64.20
67598;DHT22;62026;39.230;9.122;2022-11-22T04:48:37;16.70;64.30
67598;DHT22;62026;39.230;9.122;2022-11-22T04:51:04;16.60;64.60
67598;DHT22;62026;39.230;9.122;2022-11-22T04:53:50;16.60;64.00
67598;DHT22;62026;39.230;9.122;2022-11-22T04:56:16;16.60;63.80
67598;DHT22;62026;39.230;9.122;2022-11-22T04:58:43;16.70;64.00
67598;DHT22;62026;39.230;9.122;2022-11-22T05:01:09;16.70;64.40
67598;DHT22;62026;39.230;9.122;2022-11-22T05:03:36;16.70;64.60
67598;DHT22;62026;39.230;9.122;2022-11-22T05:06:03;16.70;64.90
67598;DHT22;62026;39.230;9.122;2022-11-22T05:08:30;16.70;64.80
67598;DHT22;62026;39.230;9.122;2022-11-22T05:10:56;16.70;64.80
67598;DHT22;62026;39.230;9.122;2022-11-22T05:16:01;16.60;64.90
67598;DHT22;62026;39.230;9.122;2022-11-22T05:18:28;16.70;64.90
67598;DHT22;62026;39.230;9.122;2022-11-22T05:20:55;16.70;65.00
67598;DHT22;62026;39.230;9.122;2022-11-22T05:23:22;16.70;65.30
67598;DHT22;62026;39.230;9.122;2022-11-22T05:26:08;16.60;65.70
67598;DHT22;62026;39.230;9.122;2022-11-22T05:28:36;16.60;66.60
67598;DHT22;62026;39.230;9.122;2022-11-22T05:31:08;16.60;67.40
67598;DHT22;62026;39.230;9.122;2022-11-22T05:33:40;16.60;67.60
67598;DHT22;62026;39.230;9.122;2022-11-22T05:36:07;16.60;67.90
67598;DHT22;62026;39.230;9.122;2022-11-22T05:38:35;16.50;68.00
67598;DHT22;62026;39.230;9.122;2022-11-22T05:41:03;16.50;68.20
67598;DHT22;62026;39.230;9.122;2022-11-22T05:43:31;16.40;67.70
67598;DHT22;62026;39.230;9.122;2022-11-22T05:46:15;16.40;67.20
67598;DHT22;62026;39.230;9.122;2022-11-22T05:48:45;16.30;66.30
67598;DHT22;62026;39.230;9.122;2022-11-22T05:51:14;16.30;66.00
67598;DHT22;62026;39.230;9.122;2022-11-22T05:53:44;16.20;65.30
67598;DHT22;62026;39.230;9.122;2022-11-22T05:56:19;16.20;65.20
67598;DHT22;62026;39.230;9.122;2022-11-22T05:58:48;16.10;64.90
67598;DHT22;62026;39.230;9.122;2022-11-22T06:01:19;16.10;64.60
67598;DHT22;62026;39.230;9.122;2022-11-22T06:03:48;16.00;64.00
67598;DHT22;62026;39.230;9.122;2022-11-22T06:06:14;16.00;64.70
67598;DHT22;62026;39.230;9.122;2022-11-22T06:08:42;15.90;64.60
67598;DHT22;62026;39.230;9.122;2022-11-22T06:11:17;15.90;64.80
67598;DHT22;62026;39.230;9.122;2022-11-22T06:13:49;15.80;64.70
67598;DHT22;62026;39.230;9.122;2022-11-22T06:16:17;15.80;64.60
67598;DHT22;62026;39.230;9.122;2022-11-22T06:18:43;15.80;64.70
67598;DHT22;62026;39.230;9.122;2022-11-22T06:21:12;15.70;64.90
67598;DHT22;62026;39.230;9.122;2022-11-22T06:23:41;15.70;65.20
67598;DHT22;62026;39.230;9.122;2022-11-22T06:26:16;15.60;65.30
67598;DHT22;62026;39.230;9.122;2022-11-22T06:28:43;15.60;65.30
67598;DHT22;62026;39.230;9.122;2022-11-22T06:31:21;15.60;65.10
67598;DHT22;62026;39.230;9.122;2022-11-22T06:33:50;15.60;65.10
67598;DHT22;62026;39.230;9.122;2022-11-22T06:36:20;15.60;65.20
67598;DHT22;62026;39.230;9.122;2022-11-22T06:38:47;15.60;65.20
67598;DHT22;62026;39.230;9.122;2022-11-22T06:41:16;15.60;65.30
67598;DHT22;62026;39.230;9.122;2022-11-22T06:43:45;15.50;65.10
67598;DHT22;62026;39.230;9.122;2022-11-22T06:46:13;15.50;65.20
67598;DHT22;62026;39.230;9.122;2022-11-22T06:48:41;15.50;65.20
67598;DHT22;62026;39.230;9.122;2022-11-22T06:51:19;15.50;65.00
67598;DHT22;62026;39.230;9.122;2022-11-22T06:53:49;15.50;64.90
67598;DHT22;62026;39.230;9.122;2022-11-22T06:56:29;15.50;65.10
67598;DHT22;62026;39.230;9.122;2022-11-22T06:59:03;15.50;65.80
67598;DHT22;62026;39.230;9.122;2022-11-22T07:01:31;15.50;65.80
67598;DHT22;62026;39.230;9.122;2022-11-22T07:03:59;15.50;65.70
67598;DHT22;62026;39.230;9.122;2022-11-22T07:06:29;15.50;65.70
67598;DHT22;62026;39.230;9.122;2022-11-22T07:08:58;15.40;65.50
67598;DHT22;62026;39.230;9.122;2022-11-22T07:11:27;15.40;65.70
67598;DHT22;62026;39.230;9.122;2022-11-22T07:13:56;15.40;65.90
67598;DHT22;62026;39.230;9.122;2022-11-22T07:16:23;15.40;65.90
67598;DHT22;62026;39.230;9.122;2022-11-22T07:18:49;15.40;66.30
67598;DHT22;62026;39.230;9.122;2022-11-22T07:21:23;15.40;66.00
67598;DHT22;62026;39.230;9.122;2022-11-22T07:23:51;15.40;65.90
67598;DHT22;62026;39.230;9.122;2022-11-22T07:26:20;15.40;66.10
67598;DHT22;62026;39.230;9.122;2022-11-22T07:28:47;15.40;66.20
67598;DHT22;62026;39.230;9.122;2022-11-22T07:31:15;15.40;66.80
67598;DHT22;62026;39.230;9.122;2022-11-22T07:33:43;15.40;66.80
67598;DHT22;62026;39.230;9.122;2022-11-22T07:36:17;15.40;67.10
67598;DHT22;62026;39.230;9.122;2022-11-22T07:38:45;15.40;67.00
67598;DHT22;62026;39.230;9.122;2022-11-22T07:41:12;15.40;66.70
67598;DHT22;62026;39.230;9.122;2022-11-22T07:43:40;15.30;67.00
67598;DHT22;62026;39.230;9.122;2022-11-22T07:46:13;15.40;67.80
67598;DHT22;62026;39.230;9.122;2022-11-22T07:48:47;15.30;67.90
67598;DHT22;62026;39.230;9.122;2022-11-22T07:51:14;15.40;67.50
67598;DHT22;62026;39.230;9.122;2022-11-22T07:53:40;15.40;67.40
67598;DHT22;62026;39.230;9.122;2022-11-22T07:56:06;15.40;67.70
67598;DHT22;62026;39.230;9.122;2022-11-22T07:58:33;15.40;67.90
67598;DHT22;62026;39.230;9.122;2022-11-22T08:01:07;15.40;67.80
67598;DHT22;62026;39.230;9.122;2022-11-22T08:03:34;15.40;67.40
67598;DHT22;62026;39.230;9.122;2022-11-22T08:06:02;15.40;67.50
67598;DHT22;62026;39.230;9.122;2022-11-22T08:08:29;15.50;67.10
67598;DHT22;62026;39.230;9.122;2022-11-22T08:10:55;15.50;66.70
67598;DHT22;62026;39.230;9.122;2022-11-22T08:13:22;15.60;66.40
67598;DHT22;62026;39.230;9.122;2022-11-22T08:15:48;15.80;65.30
67598;DHT22;62026;39.230;9.122;2022-11-22T08:18:15;15.80;65.10
67598;DHT22;62026;39.230;9.122;2022-11-22T08:20:41;15.90;64.60
67598;DHT22;62026;39.230;9.122;2022-11-22T08:23:07;15.80;64.30
67598;DHT22;62026;39.230;9.122;2022-11-22T08:25:33;15.80;63.30
67598;DHT22;62026;39.230;9.122;2022-11-22T08:27:59;15.90;62.10
67598;DHT22;62026;39.230;9.122;2022-11-22T08:30:25;16.10;61.80
67598;DHT22;62026;39.230;9.122;2022-11-22T08:32:54;16.30;60.80
67598;DHT22;62026;39.230;9.122;2022-11-22T08:35:20;16.30;59.30
67598;DHT22;62026;39.230;9.122;2022-11-22T08:37:46;16.40;59.10
67598;DHT22;62026;39.230;9.122;2022-11-22T08:40:12;16.40;58.30
67598;DHT22;62026;39.230;9.122;2022-11-22T08:42:38;16.20;57.50
67598;DHT22;62026;39.230;9.122;2022-11-22T08:45:05;16.10;56.80
67598;DHT22;62026;39.230;9.122;2022-11-22T08:47:31;16.30;56.70
67598;DHT22;62026;39.230;9.122;2022-11-22T08:49:57;16.50;56.10
67598;DHT22;62026;39.230;9.122;2022-11-22T08:52:23;16.50;56.10
67598;DHT22;62026;39.230;9.122;2022-11-22T08:54:49;16.50;56.10
67598;DHT22;62026;39.230;9.122;2022-11-22T08:57:15;16.60;55.90
67598;DHT22;62026;39.230;9.122;2022-11-22T08:59:41;16.90;56.00
67598;DHT22;62026;39.230;9.122;2022-11-22T09:02:08;17.00;56.00
67598;DHT22;62026;39.230;9.122;2022-11-22T09:04:34;17.10;55.40
67598;DHT22;62026;39.230;9.122;2022-11-22T09:07:00;17.20;55.60
67598;DHT22;62026;39.230;9.122;2022-11-22T09:09:26;17.40;55.20
67598;DHT22;62026;39.230;9.122;2022-11-22T09:11:52;17.40;54.80
67598;DHT22;62026;39.230;9.122;2022-11-22T09:14:18;17.40;54.30
67598;DHT22;62026;39.230;9.122;2022-11-22T09:16:44;17.40;53.60
67598;DHT22;62026;39.230;9.122;2022-11-22T09:19:10;17.50;53.40
67598;DHT22;62026;39.230;9.122;2022-11-22T09:21:36;17.40;52.20
67598;DHT22;62026;39.230;9.122;2022-11-22T09:24:01;17.60;52.10
67598;DHT22;62026;39.230;9.122;2022-11-22T09:26:28;17.60;51.60
67598;DHT22;62026;39.230;9.122;2022-11-22T09:28:56;17.60;51.70
67598;DHT22;62026;39.230;9.122;2022-11-22T09:31:22;17.70;51.50
67598;DHT22;62026;39.230;9.122;2022-11-22T09:33:49;17.80;51.60
67598;DHT22;62026;39.230;9.122;2022-11-22T09:36:16;17.90;51.30
67598;DHT22;62026;39.230;9.122;2022-11-22T09:38:46;18.00;51.50
67598;DHT22;62026;39.230;9.122;2022-11-22T09:52:34;17.60;51.70
67598;DHT22;62026;39.230;9.122;2022-11-22T09:55:31;17.60;50.90
67598;DHT22;62026;39.230;9.122;2022-11-22T10:00:47;17.50;50.10
67598;DHT22;62026;39.230;9.122;2022-11-22T10:05:57;17.20;51.90
67598;DHT22;62026;39.230;9.122;2022-11-22T10:11:42;17.10;52.50
67598;DHT22;62026;39.230;9.122;2022-11-22T10:17:19;17.00;53.50
67598;DHT22;62026;39.230;9.122;2022-11-22T10:22:46;17.00;55.10
67598;DHT22;62026;39.230;9.122;2022-11-22T10:25:39;17.00;54.40
67598;DHT22;62026;39.230;9.122;2022-11-22T10:28:35;17.00;54.50
67598;DHT22;62026;39.230;9.122;2022-11-22T10:31:16;17.00;54.70
67598;DHT22;62026;39.230;9.122;2022-11-22T10:34:19;17.20;54.40
67598;DHT22;62026;39.230;9.122;2022-11-22T10:37:45;17.40;54.10
67598;DHT22;62026;39.230;9.122;2022-11-22T10:45:29;17.10;55.00
67598;DHT22;62026;39.230;9.122;2022-11-22T10:56:54;16.80;57.20
67598;DHT22;62026;39.230;9.122;2022-11-22T11:04:57;16.80;56.70
67598;DHT22;62026;39.230;9.122;2022-11-22T11:07:26;16.70;57.60
67598;DHT22;62026;39.230;9.122;2022-11-22T11:09:56;16.60;58.40
67598;DHT22;62026;39.230;9.122;2022-11-22T11:12:28;16.50;58.20
67598;DHT22;62026;39.230;9.122;2022-11-22T11:15:12;16.40;59.20
67598;DHT22;62026;39.230;9.122;2022-11-22T11:17:44;16.40;58.20
67598;DHT22;62026;39.230;9.122;2022-11-22T11:20:22;16.40;58.50
67598;DHT22;62026;39.230;9.122;2022-11-22T11:22:50;16.30;58.00
67598;DHT22;62026;39.230;9.122;2022-11-22T11:25:33;16.30;58.50
67598;DHT22;62026;39.230;9.122;2022-11-22T11:28:06;16.30;58.00
67598;DHT22;62026;39.230;9.122;2022-11-22T11:30:41;16.30;58.10
67598;DHT22;62026;39.230;9.122;2022-11-22T11:33:28;16.30;57.20
67598;DHT22;62026;39.230;9.122;2022-11-22T11:36:05;16.30;57.30
67598;DHT22;62026;39.230;9.122;2022-11-22T11:41:19;16.20;57.00
67598;DHT22;62026;39.230;9.122;2022-11-22T11:43:52;16.20;57.30
67598;DHT22;62026;39.230;9.122;2022-11-22T11:46:21;16.10;57.40
67598;DHT22;62026;39.230;9.122;2022-11-22T11:51:55;16.10;59.30
67598;DHT22;62026;39.230;9.122;2022-11-22T11:54:47;16.10;59.50
67598;DHT22;62026;39.230;9.122;2022-11-22T11:57:15;16.10;59.50
67598;DHT22;62026;39.230;9.122;2022-11-22T11:59:47;16.20;59.70
67598;DHT22;62026;39.230;9.122;2022-11-22T12:02:38;16.20;59.70
67598;DHT22;62026;39.230;9.122;2022-11-22T12:05:25;16.30;59.90
67598;DHT22;62026;39.230;9.122;2022-11-22T12:07:52;16.20;60.30
67598;DHT22;62026;39.230;9.122;2022-11-22T12:10:33;16.00;61.10
67598;DHT22;62026;39.230;9.122;2022-11-22T12:13:44;16.00;61.50
67598;DHT22;62026;39.230;9.122;2022-11-22T12:16:19;16.10;61.00
67598;DHT22;62026;39.230;9.122;2022-11-22T12:22:05;16.10;60.50
67598;DHT22;62026;39.230;9.122;2022-11-22T12:24:57;16.10;60.60
67598;DHT22;62026;39.230;9.122;2022-11-22T12:27:26;16.10;60.40
67598;DHT22;62026;39.230;9.122;2022-11-22T12:29:52;16.10;60.30
67598;DHT22;62026;39.230;9.122;2022-11-22T12:32:28;16.20;60.20
67598;DHT22;62026;39.230;9.122;2022-11-22T12:35:06;16.10;59.90
67598;DHT22;62026;39.230;9.122;2022-11-22T12:37:48;16.10;59.20
67598;DHT22;62026;39.230;9.122;2022-11-22T12:40:30;16.00;59.50
67598;DHT22;62026;39.230;9.122;2022-11-22T12:43:10;16.10;59.70
67598;DHT22;62026;39.230;9.122;2022-11-22T12:45:53;16.10;60.40
67598;DHT22;62026;39.230;9.122;2022-11-22T12:48:33;16.10;60.20
67598;DHT22;62026;39.230;9.122;2022-11-22T12:51:36;16.10;60.00
67598;DHT22;62026;39.230;9.122;2022-11-22T12:54:13;16.20;60.50
67598;DHT22;62026;39.230;9.122;2022-11-22T12:56:55;16.10;60.50
67598;DHT22;62026;39.230;9.122;2022-11-22T12:59:57;16.20;59.80
67598;DHT22;62026;39.230;9.122;2022-11-22T13:05:46;16.20;58.40
67598;DHT22;62026;39.230;9.122;2022-11-22T13:08:31;16.20;58.00
67598;DHT22;62026;39.230;9.122;2022-11-22T13:11:20;16.10;57.90
67598;DHT22;62026;39.230;9.122;2022-11-22T13:14:10;16.20;57.10
67598;DHT22;62026;39.230;9.122;2022-11-22T13:16:39;16.20;57.00
67598;DHT22;62026;39.230;9.122;2022-11-22T13:19:06;16.20;57.40
67598;DHT22;62026;39.230;9.122;2022-11-22T13:21:49;16.20;56.90
67598;DHT22;62026;39.230;9.122;2022-11-22T13:24:56;16.20;56.90
67598;DHT22;62026;39.230;9.122;2022-11-22T13:27:47;16.30;57.10
67598;DHT22;62026;39.230;9.122;2022-11-22T13:30:24;16.30;57.00
67598;DHT22;62026;39.230;9.122;2022-11-22T13:32:57;16.30;57.40
67598;DHT22;62026;39.230;9.122;2022-11-22T13:35:29;16.30;57.50
67598;DHT22;62026;39.230;9.122;2022-11-22T13:37:59;16.30;57.90
67598;DHT22;62026;39.230;9.122;2022-11-22T13:40:37;16.30;57.00
67598;DHT22;62026;39.230;9.122;2022-11-22T13:51:05;16.30;52.90
67598;DHT22;62026;39.230;9.122;2022-11-22T13:53:45;16.30;53.30
67598;DHT22;62026;39.230;9.122;2022-11-22T14:06:48;16.30;51.60
67598;DHT22;62026;39.230;9.122;2022-11-22T14:18:46;16.40;51.90
67598;DHT22;62026;39.230;9.122;2022-11-22T14:22:06;16.40;52.10
67598;DHT22;62026;39.230;9.122;2022-11-22T14:25:05;16.40;51.60
67598;DHT22;62026;39.230;9.122;2022-11-22T14:27:52;16.40;51.60
67598;DHT22;62026;39.230;9.122;2022-11-22T14:30:38;16.40;51.70
67598;DHT22;62026;39.230;9.122;2022-11-22T14:33:27;16.40;52.00
67598;DHT22;62026;39.230;9.122;2022-11-22T14:38:36;16.40;51.70
67598;DHT22;62026;39.230;9.122;2022-11-22T14:44:15;16.30;50.50
67598;DHT22;62026;39.230;9.122;2022-11-22T14:47:03;16.30;50.60
67598;DHT22;62026;39.230;9.122;2022-11-22T14:49:47;16.30;50.60
67598;DHT22;62026;39.230;9.122;2022-11-22T14:52:25;16.30;50.80
67598;DHT22;62026;39.230;9.122;2022-11-22T14:55:00;16.30;50.90
67598;DHT22;62026;39.230;9.122;2022-11-22T14:57:32;16.30;50.90
67598;DHT22;62026;39.230;9.122;2022-11-22T15:00:21;16.30;50.90
67598;DHT22;62026;39.230;9.122;2022-11-22T15:08:54;16.30;50.50
67598;DHT22;62026;39.230;9.122;2022-11-22T15:12:12;16.30;50.20
67598;DHT22;62026;39.230;9.122;2022-11-22T15:17:44;16.30;50.70
67598;DHT22;62026;39.230;9.122;2022-11-22T15:20:37;16.30;51.00
67598;DHT22;62026;39.230;9.122;2022-11-22T15:23:16;16.30;51.50
67598;DHT22;62026;39.230;9.122;2022-11-22T15:26:05;16.30;51.70
67598;DHT22;62026;39.230;9.122;2022-11-22T15:28:44;16.20;52.60
67598;DHT22;62026;39.230;9.122;2022-11-22T15:31:25;16.30;53.70
67598;DHT22;62026;39.230;9.122;2022-11-22T15:34:03;16.30;53.70
67598;DHT22;62026;39.230;9.122;2022-11-22T15:39:16;16.20;55.00
67598;DHT22;62026;39.230;9.122;2022-11-22T15:41:53;16.30;55.40
67598;DHT22;62026;39.230;9.122;2022-11-22T15:44:22;16.20;55.60
67598;DHT22;62026;39.230;9.122;2022-11-22T15:46:49;16.20;55.60
67598;DHT22;62026;39.230;9.122;2022-11-22T15:49:16;16.20;55.80
67598;DHT22;62026;39.230;9.122;2022-11-22T15:51:54;16.20;55.80
67598;DHT22;62026;39.230;9.122;2022-11-22T15:54:36;16.20;55.90
67598;DHT22;62026;39.230;9.122;2022-11-22T15:59:55;16.20;56.30
67598;DHT22;62026;39.230;9.122;2022-11-22T16:02:24;16.10;56.30
67598;DHT22;62026;39.230;9.122;2022-11-22T16:05:04;16.10;56.50
67598;DHT22;62026;39.230;9.122;2022-11-22T16:07:38;16.20;56.60
67598;DHT22;62026;39.230;9.122;2022-11-22T16:12:44;16.20;57.00
67598;DHT22;62026;39.230;9.122;2022-11-22T16:15:31;16.20;56.90
67598;DHT22;62026;39.230;9.122;2022-11-22T16:18:20;16.10;57.10
67598;DHT22;62026;39.230;9.122;2022-11-22T16:23:37;16.10;57.10
67598;DHT22;62026;39.230;9.122;2022-11-22T16:28:45;16.00;57.00
67598;DHT22;62026;39.230;9.122;2022-11-22T16:31:23;16.00;57.00
67598;DHT22;62026;39.230;9.122;2022-11-22T16:33:51;16.10;57.10
67598;DHT22;62026;39.230;9.122;2022-11-22T16:36:21;16.00;57.00
67598;DHT22;62026;39.230;9.122;2022-11-22T16:38:48;16.00;56.90
67598;DHT22;62026;39.230;9.122;2022-11-22T16:43:53;16.00;57.10
67598;DHT22;62026;39.230;9.122;2022-11-22T16:46:21;16.00;57.20
67598;DHT22;62026;39.230;9.122;2022-11-22T16:48:47;16.00;57.30
67598;DHT22;62026;39.230;9.122;2022-11-22T16:51:27;16.00;57.40
67598;DHT22;62026;39.230;9.122;2022-11-22T16:53:58;16.00;57.30
67598;DHT22;62026;39.230;9.122;2022-11-22T16:56:31;16.00;57.40
67598;DHT22;62026;39.230;9.122;2022-11-22T16:58:58;16.00;57.20
67598;DHT22;62026;39.230;9.122;2022-11-22T17:01:27;16.00;57.20
67598;DHT22;62026;39.230;9.122;2022-11-22T17:03:58;16.00;57.30
67598;DHT22;62026;39.230;9.122;2022-11-22T17:06:27;16.00;57.80
67598;DHT22;62026;39.230;9.122;2022-11-22T17:08:56;15.90;58.40
67598;DHT22;62026;39.230;9.122;2022-11-22T17:11:29;15.90;58.60
67598;DHT22;62026;39.230;9.122;2022-11-22T17:13:57;15.90;58.90
67598;DHT22;62026;39.230;9.122;2022-11-22T17:16:24;15.90;59.40
67598;DHT22;62026;39.230;9.122;2022-11-22T17:18:50;15.90;59.20
67598;DHT22;62026;39.230;9.122;2022-11-22T17:21:33;15.90;59.20
67598;DHT22;62026;39.230;9.122;2022-11-22T17:24:16;15.90;59.20
67598;DHT22;62026;39.230;9.122;2022-11-22T17:26:44;15.90;59.10
67598;DHT22;62026;39.230;9.122;2022-11-22T17:29:10;15.80;59.00
67598;DHT22;62026;39.230;9.122;2022-11-22T17:31:36;15.80;58.90
67598;DHT22;62026;39.230;9.122;2022-11-22T17:34:03;15.90;59.00
67598;DHT22;62026;39.230;9.122;2022-11-22T17:36:31;15.80;59.00
67598;DHT22;62026;39.230;9.122;2022-11-22T17:39:00;15.80;58.90
67598;DHT22;62026;39.230;9.122;2022-11-22T17:41:27;15.80;58.80
67598;DHT22;62026;39.230;9.122;2022-11-22T17:43:55;15.80;59.00
67598;DHT22;62026;39.230;9.122;2022-11-22T17:46:21;15.80;59.20
67598;DHT22;62026;39.230;9.122;2022-11-22T17:48:52;15.80;59.20
67598;DHT22;62026;39.230;9.122;2022-11-22T17:51:19;15.70;59.20
67598;DHT22;62026;39.230;9.122;2022-11-22T17:53:46;15.80;59.40
67598;DHT22;62026;39.230;9.122;2022-11-22T17:56:13;15.70;59.50
67598;DHT22;62026;39.230;9.122;2022-11-22T17:58:40;15.70;59.60
67598;DHT22;62026;39.230;9.122;2022-11-22T18:01:13;15.70;59.70
67598;DHT22;62026;39.230;9.122;2022-11-22T18:03:41;15.70;59.90
67598;DHT22;62026;39.230;9.122;2022-11-22T18:06:09;15.70;60.00